Terminal Aerodrome Forecast
Issued by NWS Twin Cities, MN

Home | Current Version | Previous Version | Graphics & Text | Print | Product List | Glossary On
Versions: 1 2 3 4 5 6 7 8 9 10 11 12 13 14 15 16 17 18 19 20 21
812
FTUS43 KMPX 232002 AAA
TAFSTC
TAF AMD
KSTC 232002Z 2320/2418 15013KT P6SM VCSH OVC025
     FM232100 14010KT 4SM -SHRA VCTS OVC015CB
     FM240000 13008KT 2SM -SHRA OVC005
     FM240600 VRB03KT 2SM BR VCSH OVC005
     FM241100 02005KT 2SM BR VCSH OVC010
     FM241200 02006KT 4SM BR OVC008
     FM241700 02009KT P6SM OVC010=

USA.gov is the U.S. government's official web portal to all federal, state and local government web resources and services.